»·PEaware :: ASA646 KSEA-KPHX

ASA646 :: KSEA-KPHX

FLIGHT INFORMATION

Flight Status: Arrived
Operator:
Alaska Airlines
More flights by this operator :: More flights under this callsign
Pilot: Teofilo H. (11827)
Aircraft: BOEING 737-800
(B738)
More flights by this aircraft type
Origin: KSEA Seattle-Tacoma Intl
United States
Destination: KPHX Phoenix Sky Harbor Intl
United States
More flights between these airports :: More routes between these airports
Route: +SUMMA1 SUMMA LTJ IMB NEERO SLOWN BERYL CORKR TENTS BRUSR1
File this flight plan on PilotEdge
Remarks:
Altitude:
(Current/Filed)
35,000ft
Speed:
(Current/Filed)
430kts
Departed: 10-Jan-18 04:02 PM
Arrived: 10-Jan-18 06:07 PM
Distance/Time
Traveled:
961nm/2:05
Distance/Time
To Go:
Arrived

Flight Plot

Page will automatically refresh every two minutes.

Flight plan parsing failed; only flown route is shown


Map Options




Map Legend


Flown Route
Filed Route
Departure Airport
Arrival Airport
Navaid (VOR, NDB)
Fix

Horizontal Profiles

Position Reports

Time Latitude Longitude Heading Altitude Ground
Speed
10-Jan-18 15:39 47.446607 -122.303349 230 395ft 0kts
10-Jan-18 15:40 47.446607 -122.303349 230 395ft 0kts
10-Jan-18 15:41 47.446607 -122.303349 230 395ft 0kts
10-Jan-18 15:42 47.446607 -122.303349 230 395ft 0kts
10-Jan-18 15:43 47.446607 -122.303349 230 395ft 0kts
10-Jan-18 15:44 47.446607 -122.303349 230 395ft 0kts
10-Jan-18 15:45 47.446607 -122.303349 230 395ft 0kts
10-Jan-18 15:46 47.446607 -122.303349 230 395ft 0kts
10-Jan-18 15:47 47.446607 -122.303349 230 395ft 0kts
10-Jan-18 15:48 47.446607 -122.303349 230 395ft 0kts
10-Jan-18 15:49 47.446607 -122.303349 230 395ft 0kts
10-Jan-18 15:50 47.446607 -122.303349 230 395ft 0kts
10-Jan-18 15:51 47.446607 -122.303349 230 395ft 0kts
10-Jan-18 15:52 47.446607 -122.303349 230 395ft 0kts
10-Jan-18 15:53 47.446607 -122.303349 230 395ft 0kts
10-Jan-18 15:54 47.446607 -122.303349 230 395ft 0kts
10-Jan-18 15:55 47.446607 -122.303349 230 395ft 0kts
10-Jan-18 15:56 47.446607 -122.303349 230 395ft 0kts
10-Jan-18 15:57 47.446608 -122.303349 230 395ft 0kts
10-Jan-18 15:58 47.446800 -122.302950 250 394ft 2kts
10-Jan-18 15:59 47.446781 -122.302256 295 393ft 1kts
10-Jan-18 16:00 47.446773 -122.302233 294 393ft 0kts
10-Jan-18 16:01 47.446773 -122.302233 294 393ft 0kts
10-Jan-18 16:02 47.446773 -122.302233 294 393ft 0kts
10-Jan-18 16:03 47.447049 -122.303012 305 396ft 9kts
10-Jan-18 16:04 47.449889 -122.306272 1 408ft 16kts
10-Jan-18 16:05 47.454238 -122.306228 0 429ft 17kts
10-Jan-18 16:06 47.458750 -122.306171 1 440ft 22kts
10-Jan-18 16:07 47.463593 -122.306358 320 417ft 2kts
10-Jan-18 16:08 47.460416 -122.307792 180 431ft 77kts
10-Jan-18 16:09 47.422133 -122.308784 182 2021ft 193kts
10-Jan-18 16:10 47.358210 -122.316571 180 4259ft 246kts
10-Jan-18 16:11 47.288898 -122.312654 177 7577ft 267kts
10-Jan-18 16:12 47.219157 -122.288578 148 10865ft 289kts
10-Jan-18 16:13 47.145443 -122.232865 180 13100ft 312kts
10-Jan-18 16:14 47.054967 -122.202258 170 15192ft 363kts
10-Jan-18 16:15 46.956181 -122.155326 169 17760ft 386kts
10-Jan-18 16:16 46.869868 -122.113013 169 19787ft 404kts
10-Jan-18 16:17 46.761047 -122.059317 169 22019ft 425kts
10-Jan-18 16:18 46.647216 -122.002903 169 24071ft 446kts
10-Jan-18 16:19 46.536340 -121.908400 151 25909ft 482kts
10-Jan-18 16:20 46.423627 -121.797339 151 27660ft 502kts
10-Jan-18 16:21 46.306582 -121.682810 151 29279ft 522kts
10-Jan-18 16:22 46.184939 -121.563717 150 30944ft 537kts
10-Jan-18 16:23 46.060470 -121.441704 150 32747ft 545kts
10-Jan-18 16:24 45.938036 -121.321439 151 34946ft 536kts
10-Jan-18 16:25 45.815055 -121.200533 151 35066ft 552kts
10-Jan-18 16:26 45.690766 -121.073156 140 35068ft 557kts
10-Jan-18 16:27 45.577175 -120.922400 141 35074ft 558kts
10-Jan-18 16:28 45.471082 -120.784811 141 35079ft 559kts
10-Jan-18 16:29 45.356661 -120.636389 140 35083ft 559kts
10-Jan-18 16:30 45.241967 -120.487363 140 35088ft 560kts
10-Jan-18 16:31 45.127432 -120.338304 140 35087ft 570kts
10-Jan-18 16:32 45.012292 -120.187852 139 35081ft 569kts
10-Jan-18 16:33 44.897779 -120.038272 139 35085ft 569kts
10-Jan-18 16:34 44.783118 -119.888253 139 35071ft 569kts
10-Jan-18 16:35 44.667612 -119.736865 139 35076ft 569kts
10-Jan-18 16:36 44.532222 -119.638787 167 35078ft 551kts
10-Jan-18 16:37 44.390128 -119.556627 164 35084ft 551kts
10-Jan-18 16:38 44.249310 -119.473234 164 35089ft 552kts
10-Jan-18 16:39 44.108626 -119.389813 163 35093ft 552kts
10-Jan-18 16:40 43.979463 -119.313044 164 35080ft 551kts
10-Jan-18 16:41 43.831166 -119.224941 164 35065ft 551kts
10-Jan-18 16:42 43.691219 -119.141821 164 35068ft 551kts
10-Jan-18 16:43 43.550724 -119.058332 164 35072ft 551kts
10-Jan-18 16:44 43.410568 -118.975000 163 35077ft 551kts
10-Jan-18 16:45 43.270338 -118.891582 163 35081ft 551kts
10-Jan-18 16:46 43.130073 -118.808102 163 35085ft 551kts
10-Jan-18 16:47 42.990172 -118.724792 163 35090ft 551kts
10-Jan-18 16:48 42.853329 -118.643264 163 35074ft 551kts
10-Jan-18 16:49 42.713885 -118.560148 163 35078ft 551kts
10-Jan-18 16:50 42.573919 -118.476678 162 35083ft 551kts
10-Jan-18 16:51 42.434238 -118.393339 162 35087ft 551kts
10-Jan-18 16:52 42.300365 -118.313298 163 35074ft 549kts
10-Jan-18 16:53 42.161128 -118.230085 162 35077ft 550kts
10-Jan-18 16:54 42.021634 -118.146730 162 35082ft 550kts
10-Jan-18 16:55 41.884121 -118.064537 162 35074ft 550kts
10-Jan-18 16:56 41.757474 -117.951578 133 35087ft 562kts
10-Jan-18 16:57 41.647356 -117.803674 136 35075ft 561kts
10-Jan-18 16:58 41.554273 -117.683491 136 35079ft 560kts
10-Jan-18 16:59 41.424335 -117.515744 136 35084ft 560kts
10-Jan-18 17:00 41.312842 -117.371560 136 35088ft 559kts
10-Jan-18 17:01 41.222114 -117.253822 136 35076ft 559kts
10-Jan-18 17:02 41.093512 -117.086901 136 35069ft 550kts
10-Jan-18 17:03 41.002128 -116.968177 136 35084ft 556kts
10-Jan-18 17:04 40.895366 -116.829255 136 35086ft 555kts
10-Jan-18 17:05 40.767797 -116.662945 135 35048ft 555kts
10-Jan-18 17:06 40.676580 -116.543833 135 35051ft 554kts
10-Jan-18 17:07 40.567628 -116.401354 135 35055ft 554kts
10-Jan-18 17:08 40.480976 -116.300989 141 35044ft 552kts
10-Jan-18 17:09 40.363966 -116.170577 140 35052ft 550kts
10-Jan-18 17:10 40.248651 -116.042025 140 35053ft 546kts
10-Jan-18 17:11 40.133375 -115.913372 140 35055ft 546kts
10-Jan-18 17:12 40.018493 -115.784986 139 35059ft 546kts
10-Jan-18 17:13 39.903852 -115.656692 139 35116ft 546kts
10-Jan-18 17:14 39.790684 -115.529876 139 35103ft 546kts
10-Jan-18 17:15 39.675909 -115.401083 139 35106ft 546kts
10-Jan-18 17:16 39.575794 -115.288450 139 35044ft 546kts
10-Jan-18 17:17 39.461947 -115.160301 139 35068ft 546kts
10-Jan-18 17:18 39.348365 -115.032381 138 35074ft 542kts
10-Jan-18 17:19 39.234550 -114.903968 138 35081ft 543kts
10-Jan-18 17:20 39.121163 -114.775897 138 35084ft 542kts
10-Jan-18 17:21 39.008188 -114.648124 138 35088ft 542kts
10-Jan-18 17:22 38.896678 -114.521843 138 35091ft 542kts
10-Jan-18 17:23 38.785869 -114.396195 137 35077ft 542kts
10-Jan-18 17:24 38.676833 -114.272236 138 35068ft 542kts
10-Jan-18 17:25 38.564556 -114.144552 138 35043ft 542kts
10-Jan-18 17:26 38.452520 -114.017025 138 35021ft 541kts
10-Jan-18 17:27 38.340804 -113.889700 137 35025ft 541kts
10-Jan-18 17:28 38.228644 -113.761708 137 35029ft 541kts
10-Jan-18 17:29 38.117207 -113.634381 137 35032ft 541kts
10-Jan-18 17:30 38.006026 -113.507185 137 35036ft 541kts
10-Jan-18 17:31 37.895852 -113.383680 146 34994ft 540kts
10-Jan-18 17:32 37.768385 -113.312733 161 34986ft 535kts
10-Jan-18 17:33 37.632694 -113.240070 160 34988ft 536kts
10-Jan-18 17:34 37.494812 -113.165496 160 34992ft 536kts
10-Jan-18 17:35 37.358247 -113.091575 160 34995ft 535kts
10-Jan-18 17:36 37.222297 -113.017956 159 34998ft 535kts
10-Jan-18 17:37 37.086399 -112.944336 159 35055ft 535kts
10-Jan-18 17:38 36.950396 -112.870630 159 35059ft 535kts
10-Jan-18 17:39 36.819894 -112.799879 159 35044ft 535kts
10-Jan-18 17:40 36.684070 -112.726214 159 35047ft 535kts
10-Jan-18 17:41 36.576614 -112.667916 159 35050ft 535kts
10-Jan-18 17:42 36.440268 -112.593920 159 35054ft 535kts
10-Jan-18 17:43 36.304764 -112.520354 158 35006ft 535kts
10-Jan-18 17:44 36.169116 -112.446685 158 35006ft 535kts
10-Jan-18 17:45 36.029936 -112.399173 191 35023ft 500kts
10-Jan-18 17:46 35.901258 -112.415583 191 35010ft 458kts
10-Jan-18 17:47 35.777483 -112.427052 190 34123ft 466kts
10-Jan-18 17:48 35.655247 -112.437686 191 31927ft 455kts
10-Jan-18 17:49 35.520437 -112.449303 189 29584ft 484kts
10-Jan-18 17:50 35.393685 -112.429788 178 29036ft 457kts
10-Jan-18 17:51 35.268196 -112.407656 176 29060ft 439kts
10-Jan-18 17:52 35.156335 -112.385334 175 29056ft 441kts
10-Jan-18 17:53 35.026886 -112.357178 175 29057ft 441kts
10-Jan-18 17:54 34.909332 -112.331686 176 29048ft 441kts
10-Jan-18 17:55 34.817044 -112.311522 175 27292ft 436kts
10-Jan-18 17:56 34.701596 -112.286137 176 24243ft 426kts
10-Jan-18 17:57 34.586174 -112.260829 175 21233ft 415kts
10-Jan-18 17:58 34.476121 -112.236699 175 19216ft 397kts
10-Jan-18 17:59 34.368746 -112.210190 173 17719ft 389kts
10-Jan-18 18:00 34.264292 -112.183088 173 16243ft 381kts
10-Jan-18 18:01 34.162403 -112.156738 173 14808ft 370kts
10-Jan-18 18:02 34.065263 -112.129199 165 13475ft 352kts
10-Jan-18 18:03 33.974697 -112.091792 165 12170ft 340kts
10-Jan-18 18:04 33.890518 -112.057500 165 10965ft 330kts
10-Jan-18 18:05 33.804905 -112.022753 165 9744ft 318kts
10-Jan-18 18:06 33.724835 -111.990382 162 8980ft 283kts
10-Jan-18 18:07 33.655029 -111.962172 162 8330ft 266kts
10-Jan-18 18:08 33.586032 -111.934278 162 7009ft 257kts
10-Jan-18 18:09 33.522873 -111.908477 162 6090ft 221kts
10-Jan-18 18:10 33.466372 -111.906548 194 4120ft 218kts
10-Jan-18 18:11 33.441173 -111.952181 268 2025ft 191kts
10-Jan-18 18:12 33.440784 -112.004045 271 1130ft 75kts
10-Jan-18 18:13 33.439945 -112.007324 184 1130ft 0kts
10-Jan-18 18:14 33.439945 -112.007324 184 1130ft 0kts
10-Jan-18 18:15 33.439945 -112.007324 184 1130ft 0kts
10-Jan-18 18:16 33.439022 -112.006621 94 1130ft 13kts
10-Jan-18 18:17 33.435383 -112.004680 180 1126ft 20kts
10-Jan-18 18:18 33.432881 -112.008435 270 1128ft 17kts
10-Jan-18 18:19 33.434220 -112.012673 294 1124ft 10kts
10-Jan-18 18:20 33.434384 -112.013261 287 1123ft 0kts
10-Jan-18 18:21 33.434384 -112.013261 287 1123ft 0kts
10-Jan-18 18:22 33.434384 -112.013261 287 1123ft 0kts
10-Jan-18 18:23 33.434384 -112.013261 287 1123ft 0kts
10-Jan-18 18:24 33.434384 -112.013261 287 1123ft 0kts
10-Jan-18 18:25 33.434384 -112.013261 287 1123ft 0kts
10-Jan-18 18:26 33.434384 -112.013261 287 1123ft 0kts
10-Jan-18 18:27 33.434384 -112.013261 287 1123ft 0kts

Navigation Log

Ident Type
Flight plan parsing failed, navigation log unavailable